sensor_id;sensor_type;location;lat;lon;timestamp;temperature;humidity
28161;DHT22;15448;51.956;7.670;2022-08-19T00:01:37;21.90;71.90
28161;DHT22;15448;51.956;7.670;2022-08-19T00:04:05;21.90;71.80
28161;DHT22;15448;51.956;7.670;2022-08-19T00:06:31;22.40;72.20
28161;DHT22;15448;51.956;7.670;2022-08-19T00:08:58;21.90;72.10
28161;DHT22;15448;51.956;7.670;2022-08-19T00:11:26;21.90;72.40
28161;DHT22;15448;51.956;7.670;2022-08-19T00:13:53;21.90;72.40
28161;DHT22;15448;51.956;7.670;2022-08-19T00:16:19;21.90;72.40
28161;DHT22;15448;51.956;7.670;2022-08-19T00:18:46;21.90;72.40
28161;DHT22;15448;51.956;7.670;2022-08-19T00:21:12;21.80;72.60
28161;DHT22;15448;51.956;7.670;2022-08-19T00:23:37;21.80;72.70
28161;DHT22;15448;51.956;7.670;2022-08-19T00:26:04;21.70;72.90
28161;DHT22;15448;51.956;7.670;2022-08-19T00:28:30;21.70;73.10
28161;DHT22;15448;51.956;7.670;2022-08-19T00:30:56;21.70;73.10
28161;DHT22;15448;51.956;7.670;2022-08-19T00:33:21;21.70;73.10
28161;DHT22;15448;51.956;7.670;2022-08-19T00:35:47;21.70;73.10
28161;DHT22;15448;51.956;7.670;2022-08-19T00:38:13;21.60;73.10
28161;DHT22;15448;51.956;7.670;2022-08-19T00:40:39;21.60;73.10
28161;DHT22;15448;51.956;7.670;2022-08-19T00:43:11;21.60;73.40
28161;DHT22;15448;51.956;7.670;2022-08-19T00:45:39;21.50;73.60
28161;DHT22;15448;51.956;7.670;2022-08-19T00:48:06;21.50;73.60
28161;DHT22;15448;51.956;7.670;2022-08-19T00:50:33;21.50;73.80
28161;DHT22;15448;51.956;7.670;2022-08-19T00:52:59;21.50;73.60
28161;DHT22;15448;51.956;7.670;2022-08-19T00:55:30;21.50;73.60
28161;DHT22;15448;51.956;7.670;2022-08-19T00:58:00;21.50;73.80
28161;DHT22;15448;51.956;7.670;2022-08-19T01:00:28;21.40;73.90
28161;DHT22;15448;51.956;7.670;2022-08-19T01:02:54;21.40;73.90
28161;DHT22;15448;51.956;7.670;2022-08-19T01:05:23;21.40;73.80
28161;DHT22;15448;51.956;7.670;2022-08-19T01:07:49;21.40;73.70
28161;DHT22;15448;51.956;7.670;2022-08-19T01:10:19;21.50;73.50
28161;DHT22;15448;51.956;7.670;2022-08-19T01:12:48;21.50;73.40
28161;DHT22;15448;51.956;7.670;2022-08-19T01:15:19;21.40;73.50
28161;DHT22;15448;51.956;7.670;2022-08-19T01:17:45;21.30;74.20
28161;DHT22;15448;51.956;7.670;2022-08-19T01:20:16;21.20;74.40
28161;DHT22;15448;51.956;7.670;2022-08-19T01:22:51;21.30;74.40
28161;DHT22;15448;51.956;7.670;2022-08-19T01:25:21;21.30;73.90
28161;DHT22;15448;51.956;7.670;2022-08-19T01:27:49;21.30;74.10
28161;DHT22;15448;51.956;7.670;2022-08-19T01:30:23;21.20;74.40
28161;DHT22;15448;51.956;7.670;2022-08-19T01:32:51;21.10;74.40
28161;DHT22;15448;51.956;7.670;2022-08-19T01:35:17;21.10;74.60
28161;DHT22;15448;51.956;7.670;2022-08-19T01:37:52;21.10;74.70
28161;DHT22;15448;51.956;7.670;2022-08-19T01:40:21;21.10;74.60
28161;DHT22;15448;51.956;7.670;2022-08-19T01:42:50;21.00;74.70
28161;DHT22;15448;51.956;7.670;2022-08-19T01:45:19;21.00;74.80
28161;DHT22;15448;51.956;7.670;2022-08-19T01:47:44;21.00;75.00
28161;DHT22;15448;51.956;7.670;2022-08-19T01:50:11;21.00;75.50
28161;DHT22;15448;51.956;7.670;2022-08-19T01:52:38;20.90;74.90
28161;DHT22;15448;51.956;7.670;2022-08-19T01:55:08;21.00;74.80
28161;DHT22;15448;51.956;7.670;2022-08-19T01:57:34;21.00;74.60
28161;DHT22;15448;51.956;7.670;2022-08-19T02:00:00;21.00;74.80
28161;DHT22;15448;51.956;7.670;2022-08-19T02:02:28;20.90;75.00
28161;DHT22;15448;51.956;7.670;2022-08-19T02:04:54;20.90;75.10
28161;DHT22;15448;51.956;7.670;2022-08-19T02:07:20;20.90;75.00
28161;DHT22;15448;51.956;7.670;2022-08-19T02:09:47;20.80;75.10
28161;DHT22;15448;51.956;7.670;2022-08-19T02:12:13;20.90;74.90
28161;DHT22;15448;51.956;7.670;2022-08-19T02:14:39;20.90;74.70
28161;DHT22;15448;51.956;7.670;2022-08-19T02:17:04;20.90;75.00
28161;DHT22;15448;51.956;7.670;2022-08-19T02:19:30;20.90;74.80
28161;DHT22;15448;51.956;7.670;2022-08-19T02:21:58;21.00;75.30
28161;DHT22;15448;51.956;7.670;2022-08-19T02:24:24;20.90;74.80
28161;DHT22;15448;51.956;7.670;2022-08-19T02:26:49;20.90;75.10
28161;DHT22;15448;51.956;7.670;2022-08-19T02:29:15;20.90;75.00
28161;DHT22;15448;51.956;7.670;2022-08-19T02:31:40;20.90;75.30
28161;DHT22;15448;51.956;7.670;2022-08-19T02:34:06;20.70;75.40
28161;DHT22;15448;51.956;7.670;2022-08-19T02:36:31;20.70;75.60
28161;DHT22;15448;51.956;7.670;2022-08-19T02:38:57;20.70;75.80
28161;DHT22;15448;51.956;7.670;2022-08-19T02:41:25;20.60;75.90
28161;DHT22;15448;51.956;7.670;2022-08-19T02:43:52;20.60;76.00
28161;DHT22;15448;51.956;7.670;2022-08-19T02:46:21;20.60;75.90
28161;DHT22;15448;51.956;7.670;2022-08-19T02:48:52;20.70;75.90
28161;DHT22;15448;51.956;7.670;2022-08-19T02:51:23;20.70;75.60
28161;DHT22;15448;51.956;7.670;2022-08-19T02:53:50;20.70;75.50
28161;DHT22;15448;51.956;7.670;2022-08-19T02:56:15;20.70;75.50
28161;DHT22;15448;51.956;7.670;2022-08-19T02:58:41;20.70;75.70
28161;DHT22;15448;51.956;7.670;2022-08-19T03:01:07;20.70;75.70
28161;DHT22;15448;51.956;7.670;2022-08-19T03:03:33;20.70;75.70
28161;DHT22;15448;51.956;7.670;2022-08-19T03:06:11;20.60;76.10
28161;DHT22;15448;51.956;7.670;2022-08-19T03:08:40;20.50;76.30
28161;DHT22;15448;51.956;7.670;2022-08-19T03:11:05;20.50;76.30
28161;DHT22;15448;51.956;7.670;2022-08-19T03:13:31;20.50;76.20
28161;DHT22;15448;51.956;7.670;2022-08-19T03:15:57;20.60;76.00
28161;DHT22;15448;51.956;7.670;2022-08-19T03:18:22;20.60;75.90
28161;DHT22;15448;51.956;7.670;2022-08-19T03:20:50;20.60;76.00
28161;DHT22;15448;51.956;7.670;2022-08-19T03:23:18;20.60;76.00
28161;DHT22;15448;51.956;7.670;2022-08-19T03:25:46;20.60;76.10
28161;DHT22;15448;51.956;7.670;2022-08-19T03:28:13;20.60;76.30
28161;DHT22;15448;51.956;7.670;2022-08-19T03:30:40;20.60;76.30
28161;DHT22;15448;51.956;7.670;2022-08-19T03:33:07;20.60;76.20
28161;DHT22;15448;51.956;7.670;2022-08-19T03:35:33;20.60;76.20
28161;DHT22;15448;51.956;7.670;2022-08-19T03:38:02;20.00;75.90
28161;DHT22;15448;51.956;7.670;2022-08-19T03:40:28;20.50;76.30
28161;DHT22;15448;51.956;7.670;2022-08-19T03:42:56;20.40;76.70
28161;DHT22;15448;51.956;7.670;2022-08-19T03:45:21;20.40;76.80
28161;DHT22;15448;51.956;7.670;2022-08-19T03:47:47;20.40;77.00
28161;DHT22;15448;51.956;7.670;2022-08-19T03:50:13;20.40;76.80
28161;DHT22;15448;51.956;7.670;2022-08-19T03:52:38;20.30;77.00
28161;DHT22;15448;51.956;7.670;2022-08-19T03:55:05;20.30;77.00
28161;DHT22;15448;51.956;7.670;2022-08-19T03:57:30;20.30;77.50
28161;DHT22;15448;51.956;7.670;2022-08-19T03:59:56;20.40;76.90
28161;DHT22;15448;51.956;7.670;2022-08-19T04:02:21;20.30;76.80
28161;DHT22;15448;51.956;7.670;2022-08-19T04:04:47;20.30;76.80
28161;DHT22;15448;51.956;7.670;2022-08-19T04:07:14;20.30;77.00
28161;DHT22;15448;51.956;7.670;2022-08-19T04:09:47;20.30;77.10
28161;DHT22;15448;51.956;7.670;2022-08-19T04:12:12;20.60;76.50
28161;DHT22;15448;51.956;7.670;2022-08-19T04:14:38;21.00;74.90
28161;DHT22;15448;51.956;7.670;2022-08-19T04:17:04;21.40;74.30
28161;DHT22;15448;51.956;7.670;2022-08-19T04:19:31;21.60;72.80
28161;DHT22;15448;51.956;7.670;2022-08-19T04:21:57;21.70;72.20
28161;DHT22;15448;51.956;7.670;2022-08-19T04:24:23;21.90;71.60
28161;DHT22;15448;51.956;7.670;2022-08-19T04:26:50;21.90;71.30
28161;DHT22;15448;51.956;7.670;2022-08-19T04:29:24;22.00;71.10
28161;DHT22;15448;51.956;7.670;2022-08-19T04:31:51;22.00;70.80
28161;DHT22;15448;51.956;7.670;2022-08-19T04:34:20;22.10;70.80
28161;DHT22;15448;51.956;7.670;2022-08-19T04:36:50;22.10;70.60
28161;DHT22;15448;51.956;7.670;2022-08-19T04:39:19;22.20;70.50
28161;DHT22;15448;51.956;7.670;2022-08-19T04:41:45;22.20;70.40
28161;DHT22;15448;51.956;7.670;2022-08-19T04:44:31;22.20;70.30
28161;DHT22;15448;51.956;7.670;2022-08-19T04:46:57;22.20;70.10
28161;DHT22;15448;51.956;7.670;2022-08-19T04:49:23;22.20;70.00
28161;DHT22;15448;51.956;7.670;2022-08-19T04:51:51;22.30;69.80
28161;DHT22;15448;51.956;7.670;2022-08-19T04:54:19;22.30;69.70
28161;DHT22;15448;51.956;7.670;2022-08-19T04:56:52;22.30;69.70
28161;DHT22;15448;51.956;7.670;2022-08-19T04:59:19;22.30;69.60
28161;DHT22;15448;51.956;7.670;2022-08-19T05:01:46;22.30;69.50
28161;DHT22;15448;51.956;7.670;2022-08-19T05:04:14;22.30;69.60
28161;DHT22;15448;51.956;7.670;2022-08-19T05:06:40;22.30;69.60
28161;DHT22;15448;51.956;7.670;2022-08-19T05:09:06;22.40;69.30
28161;DHT22;15448;51.956;7.670;2022-08-19T05:11:35;22.40;69.30
28161;DHT22;15448;51.956;7.670;2022-08-19T05:14:04;22.40;69.40
28161;DHT22;15448;51.956;7.670;2022-08-19T05:16:29;22.40;69.30
28161;DHT22;15448;51.956;7.670;2022-08-19T05:26:43;22.40;69.40
28161;DHT22;15448;51.956;7.670;2022-08-19T05:29:12;22.40;69.20
28161;DHT22;15448;51.956;7.670;2022-08-19T05:31:37;22.50;68.70
28161;DHT22;15448;51.956;7.670;2022-08-19T05:34:07;22.40;68.80
28161;DHT22;15448;51.956;7.670;2022-08-19T05:36:38;22.50;69.00
28161;DHT22;15448;51.956;7.670;2022-08-19T05:39:06;22.50;69.20
28161;DHT22;15448;51.956;7.670;2022-08-19T05:41:32;22.50;69.10
28161;DHT22;15448;51.956;7.670;2022-08-19T05:44:00;22.60;69.30
28161;DHT22;15448;51.956;7.670;2022-08-19T05:46:26;22.60;69.00
28161;DHT22;15448;51.956;7.670;2022-08-19T05:48:51;22.60;69.00
28161;DHT22;15448;51.956;7.670;2022-08-19T05:51:17;22.70;69.10
28161;DHT22;15448;51.956;7.670;2022-08-19T05:53:43;22.60;69.10
28161;DHT22;15448;51.956;7.670;2022-08-19T05:56:13;22.70;69.20
28161;DHT22;15448;51.956;7.670;2022-08-19T05:58:40;22.70;69.30
28161;DHT22;15448;51.956;7.670;2022-08-19T06:01:12;22.70;69.10
28161;DHT22;15448;51.956;7.670;2022-08-19T06:03:37;22.70;69.20
28161;DHT22;15448;51.956;7.670;2022-08-19T06:06:05;22.80;69.40
28161;DHT22;15448;51.956;7.670;2022-08-19T06:08:31;22.80;69.10
28161;DHT22;15448;51.956;7.670;2022-08-19T06:10:58;22.90;69.20
28161;DHT22;15448;51.956;7.670;2022-08-19T06:13:36;22.90;69.10
28161;DHT22;15448;51.956;7.670;2022-08-19T06:16:02;22.90;69.30
28161;DHT22;15448;51.956;7.670;2022-08-19T06:18:27;22.90;69.40
28161;DHT22;15448;51.956;7.670;2022-08-19T06:20:53;23.00;69.70
28161;DHT22;15448;51.956;7.670;2022-08-19T06:23:18;23.00;69.40
28161;DHT22;15448;51.956;7.670;2022-08-19T06:25:45;23.00;69.50
28161;DHT22;15448;51.956;7.670;2022-08-19T06:28:12;23.00;69.20
28161;DHT22;15448;51.956;7.670;2022-08-19T06:30:37;23.10;69.70
28161;DHT22;15448;51.956;7.670;2022-08-19T06:33:03;23.10;69.40
28161;DHT22;15448;51.956;7.670;2022-08-19T06:35:28;23.20;69.60
28161;DHT22;15448;51.956;7.670;2022-08-19T06:37:55;23.20;69.70
28161;DHT22;15448;51.956;7.670;2022-08-19T06:40:20;23.20;69.70
28161;DHT22;15448;51.956;7.670;2022-08-19T06:42:46;23.20;69.50
28161;DHT22;15448;51.956;7.670;2022-08-19T06:45:11;23.20;69.40
28161;DHT22;15448;51.956;7.670;2022-08-19T06:47:37;23.30;69.40
28161;DHT22;15448;51.956;7.670;2022-08-19T06:50:03;23.30;69.50
28161;DHT22;15448;51.956;7.670;2022-08-19T06:52:34;23.30;69.70
28161;DHT22;15448;51.956;7.670;2022-08-19T06:55:01;23.30;69.70
28161;DHT22;15448;51.956;7.670;2022-08-19T06:57:27;23.40;69.50
28161;DHT22;15448;51.956;7.670;2022-08-19T06:59:58;23.40;69.60
28161;DHT22;15448;51.956;7.670;2022-08-19T07:02:25;23.50;69.50
28161;DHT22;15448;51.956;7.670;2022-08-19T07:04:52;23.50;69.50
28161;DHT22;15448;51.956;7.670;2022-08-19T07:07:19;23.60;69.70
28161;DHT22;15448;51.956;7.670;2022-08-19T07:09:45;23.70;69.30
28161;DHT22;15448;51.956;7.670;2022-08-19T07:12:12;23.70;69.40
28161;DHT22;15448;51.956;7.670;2022-08-19T07:14:41;23.70;69.00
28161;DHT22;15448;51.956;7.670;2022-08-19T07:17:09;23.70;68.90
28161;DHT22;15448;51.956;7.670;2022-08-19T07:19:36;23.80;68.80
28161;DHT22;15448;51.956;7.670;2022-08-19T07:22:05;23.80;68.70
28161;DHT22;15448;51.956;7.670;2022-08-19T07:24:31;23.80;69.00
28161;DHT22;15448;51.956;7.670;2022-08-19T07:26:59;23.90;68.40
28161;DHT22;15448;51.956;7.670;2022-08-19T07:29:29;23.90;68.30
28161;DHT22;15448;51.956;7.670;2022-08-19T07:31:56;23.90;68.20
28161;DHT22;15448;51.956;7.670;2022-08-19T07:34:25;23.90;68.00
28161;DHT22;15448;51.956;7.670;2022-08-19T07:36:51;23.90;67.80
28161;DHT22;15448;51.956;7.670;2022-08-19T07:39:21;23.90;66.80
28161;DHT22;15448;51.956;7.670;2022-08-19T07:41:47;23.90;67.70
28161;DHT22;15448;51.956;7.670;2022-08-19T07:44:14;23.90;66.60
28161;DHT22;15448;51.956;7.670;2022-08-19T07:46:43;23.90;68.00
28161;DHT22;15448;51.956;7.670;2022-08-19T07:49:10;23.90;68.10
28161;DHT22;15448;51.956;7.670;2022-08-19T07:51:50;23.90;68.00
28161;DHT22;15448;51.956;7.670;2022-08-19T07:54:16;23.90;67.30
28161;DHT22;15448;51.956;7.670;2022-08-19T07:56:41;23.90;67.70
28161;DHT22;15448;51.956;7.670;2022-08-19T07:59:07;24.00;67.60
28161;DHT22;15448;51.956;7.670;2022-08-19T08:01:34;24.10;65.80
28161;DHT22;15448;51.956;7.670;2022-08-19T08:04:00;24.10;67.30
28161;DHT22;15448;51.956;7.670;2022-08-19T08:06:45;24.10;65.40
28161;DHT22;15448;51.956;7.670;2022-08-19T08:09:35;24.30;67.50
28161;DHT22;15448;51.956;7.670;2022-08-19T08:12:05;24.30;66.40
28161;DHT22;15448;51.956;7.670;2022-08-19T08:14:38;24.30;65.30
28161;DHT22;15448;51.956;7.670;2022-08-19T08:17:05;24.30;66.30
28161;DHT22;15448;51.956;7.670;2022-08-19T08:19:31;24.30;66.50
28161;DHT22;15448;51.956;7.670;2022-08-19T08:21:59;24.40;66.30
28161;DHT22;15448;51.956;7.670;2022-08-19T08:24:27;24.40;64.50
28161;DHT22;15448;51.956;7.670;2022-08-19T08:26:53;24.40;64.30
28161;DHT22;15448;51.956;7.670;2022-08-19T08:29:18;24.50;64.10
28161;DHT22;15448;51.956;7.670;2022-08-19T08:31:45;24.50;65.40
28161;DHT22;15448;51.956;7.670;2022-08-19T08:34:13;24.60;63.90
28161;DHT22;15448;51.956;7.670;2022-08-19T08:36:40;24.50;64.30
28161;DHT22;15448;51.956;7.670;2022-08-19T08:39:08;24.40;66.10
28161;DHT22;15448;51.956;7.670;2022-08-19T08:44:15;24.40;66.70
28161;DHT22;15448;51.956;7.670;2022-08-19T08:46:45;24.40;66.40
28161;DHT22;15448;51.956;7.670;2022-08-19T08:49:42;24.40;64.80
28161;DHT22;15448;51.956;7.670;2022-08-19T08:52:30;24.30;65.20
28161;DHT22;15448;51.956;7.670;2022-08-19T08:55:04;24.20;65.20
28161;DHT22;15448;51.956;7.670;2022-08-19T08:57:51;24.30;66.30
28161;DHT22;15448;51.956;7.670;2022-08-19T09:00:37;24.30;66.10
28161;DHT22;15448;51.956;7.670;2022-08-19T09:03:16;24.40;65.70
28161;DHT22;15448;51.956;7.670;2022-08-19T09:05:49;24.50;65.90
28161;DHT22;15448;51.956;7.670;2022-08-19T09:10:55;24.50;66.10
28161;DHT22;15448;51.956;7.670;2022-08-19T09:16:16;24.60;65.20
28161;DHT22;15448;51.956;7.670;2022-08-19T09:18:51;24.60;65.10
28161;DHT22;15448;51.956;7.670;2022-08-19T09:21:21;24.60;65.20
28161;DHT22;15448;51.956;7.670;2022-08-19T09:23:48;24.60;65.00
28161;DHT22;15448;51.956;7.670;2022-08-19T09:26:17;24.60;65.30
28161;DHT22;15448;51.956;7.670;2022-08-19T09:28:44;24.60;65.40
28161;DHT22;15448;51.956;7.670;2022-08-19T09:31:16;24.50;65.10
28161;DHT22;15448;51.956;7.670;2022-08-19T09:33:42;24.40;65.10
28161;DHT22;15448;51.956;7.670;2022-08-19T09:36:13;24.30;65.10
28161;DHT22;15448;51.956;7.670;2022-08-19T09:38:40;24.20;65.40
28161;DHT22;15448;51.956;7.670;2022-08-19T09:41:08;24.10;65.00
28161;DHT22;15448;51.956;7.670;2022-08-19T09:43:36;24.10;65.20
28161;DHT22;15448;51.956;7.670;2022-08-19T09:46:04;24.10;64.70
28161;DHT22;15448;51.956;7.670;2022-08-19T09:48:35;24.10;64.70
28161;DHT22;15448;51.956;7.670;2022-08-19T09:51:10;24.20;64.60
28161;DHT22;15448;51.956;7.670;2022-08-19T09:53:37;24.20;65.00
28161;DHT22;15448;51.956;7.670;2022-08-19T09:56:03;24.20;64.60
28161;DHT22;15448;51.956;7.670;2022-08-19T09:58:29;24.20;64.00
28161;DHT22;15448;51.956;7.670;2022-08-19T10:00:56;24.20;63.30
28161;DHT22;15448;51.956;7.670;2022-08-19T10:03:22;24.10;62.90
28161;DHT22;15448;51.956;7.670;2022-08-19T10:05:48;24.20;63.30
28161;DHT22;15448;51.956;7.670;2022-08-19T10:08:18;24.20;63.20
28161;DHT22;15448;51.956;7.670;2022-08-19T10:10:45;24.20;62.90
28161;DHT22;15448;51.956;7.670;2022-08-19T10:13:11;24.20;62.80
28161;DHT22;15448;51.956;7.670;2022-08-19T10:15:37;24.30;62.30
28161;DHT22;15448;51.956;7.670;2022-08-19T10:18:05;24.40;62.20
28161;DHT22;15448;51.956;7.670;2022-08-19T10:20:30;24.40;62.20
28161;DHT22;15448;51.956;7.670;2022-08-19T10:22:56;24.40;62.00
28161;DHT22;15448;51.956;7.670;2022-08-19T10:25:21;24.40;62.50
28161;DHT22;15448;51.956;7.670;2022-08-19T10:27:47;24.50;61.70
28161;DHT22;15448;51.956;7.670;2022-08-19T10:30:13;24.40;62.50
28161;DHT22;15448;51.956;7.670;2022-08-19T10:32:38;24.50;62.50
28161;DHT22;15448;51.956;7.670;2022-08-19T10:35:04;24.40;62.60
28161;DHT22;15448;51.956;7.670;2022-08-19T10:37:34;24.40;62.70
28161;DHT22;15448;51.956;7.670;2022-08-19T10:39:59;24.40;62.90
28161;DHT22;15448;51.956;7.670;2022-08-19T10:42:27;24.40;62.50
28161;DHT22;15448;51.956;7.670;2022-08-19T10:44:52;24.30;63.30
28161;DHT22;15448;51.956;7.670;2022-08-19T10:47:18;24.30;63.30
28161;DHT22;15448;51.956;7.670;2022-08-19T10:49:43;24.30;63.30
28161;DHT22;15448;51.956;7.670;2022-08-19T10:52:29;24.30;63.10
28161;DHT22;15448;51.956;7.670;2022-08-19T10:55:01;24.40;62.50
28161;DHT22;15448;51.956;7.670;2022-08-19T10:57:46;24.50;63.00
28161;DHT22;15448;51.956;7.670;2022-08-19T11:00:12;24.50;62.10
28161;DHT22;15448;51.956;7.670;2022-08-19T11:02:38;24.60;61.20
28161;DHT22;15448;51.956;7.670;2022-08-19T11:05:04;24.70;61.00
28161;DHT22;15448;51.956;7.670;2022-08-19T11:07:32;24.70;61.20
28161;DHT22;15448;51.956;7.670;2022-08-19T11:09:57;24.80;61.00
28161;DHT22;15448;51.956;7.670;2022-08-19T11:12:23;24.80;60.50
28161;DHT22;15448;51.956;7.670;2022-08-19T11:14:49;24.90;60.60
28161;DHT22;15448;51.956;7.670;2022-08-19T11:17:15;24.80;60.30
